sensor_id;sensor_type;location;lat;lon;timestamp;P1;durP1;ratioP1;P2;durP2;ratioP2
7142;SDS011;3613;48.902;9.204;2022-11-20T00:00:56;27.73;;;16.23;;
7142;SDS011;3613;48.902;9.204;2022-11-20T00:03:22;17.70;;;11.10;;
7142;SDS011;3613;48.902;9.204;2022-11-20T00:05:48;21.70;;;11.10;;
7142;SDS011;3613;48.902;9.204;2022-11-20T00:08:16;23.53;;;13.37;;
7142;SDS011;3613;48.902;9.204;2022-11-20T00:10:44;23.80;;;14.07;;
7142;SDS011;3613;48.902;9.204;2022-11-20T00:13:09;21.03;;;12.13;;
7142;SDS011;3613;48.902;9.204;2022-11-20T00:15:35;18.87;;;11.07;;
7142;SDS011;3613;48.902;9.204;2022-11-20T00:18:00;19.77;;;10.77;;
7142;SDS011;3613;48.902;9.204;2022-11-20T00:20:26;21.77;;;13.57;;
7142;SDS011;3613;48.902;9.204;2022-11-20T00:22:52;25.53;;;14.17;;
7142;SDS011;3613;48.902;9.204;2022-11-20T00:25:17;19.43;;;10.80;;
7142;SDS011;3613;48.902;9.204;2022-11-20T00:27:45;17.00;;;10.93;;
7142;SDS011;3613;48.902;9.204;2022-11-20T00:30:11;19.00;;;11.20;;
7142;SDS011;3613;48.902;9.204;2022-11-20T00:32:38;22.73;;;13.43;;
7142;SDS011;3613;48.902;9.204;2022-11-20T00:35:04;20.17;;;11.83;;
7142;SDS011;3613;48.902;9.204;2022-11-20T00:37:30;22.43;;;12.50;;
7142;SDS011;3613;48.902;9.204;2022-11-20T00:39:58;21.50;;;11.67;;
7142;SDS011;3613;48.902;9.204;2022-11-20T00:42:23;21.00;;;12.13;;
7142;SDS011;3613;48.902;9.204;2022-11-20T00:44:51;17.47;;;11.00;;
7142;SDS011;3613;48.902;9.204;2022-11-20T00:47:19;19.70;;;11.23;;
7142;SDS011;3613;48.902;9.204;2022-11-20T00:49:45;18.80;;;11.57;;
7142;SDS011;3613;48.902;9.204;2022-11-20T00:52:10;25.97;;;11.53;;
7142;SDS011;3613;48.902;9.204;2022-11-20T00:54:36;23.80;;;12.80;;
7142;SDS011;3613;48.902;9.204;2022-11-20T00:57:04;20.63;;;12.07;;
7142;SDS011;3613;48.902;9.204;2022-11-20T00:59:29;22.27;;;12.13;;
7142;SDS011;3613;48.902;9.204;2022-11-20T01:01:55;19.70;;;11.47;;
7142;SDS011;3613;48.902;9.204;2022-11-20T01:04:21;22.33;;;11.20;;
7142;SDS011;3613;48.902;9.204;2022-11-20T01:06:46;21.70;;;10.80;;
7142;SDS011;3613;48.902;9.204;2022-11-20T01:09:14;18.67;;;11.23;;
7142;SDS011;3613;48.902;9.204;2022-11-20T01:11:41;24.03;;;12.23;;
7142;SDS011;3613;48.902;9.204;2022-11-20T01:14:12;26.83;;;12.27;;
7142;SDS011;3613;48.902;9.204;2022-11-20T01:16:40;21.60;;;11.53;;
7142;SDS011;3613;48.902;9.204;2022-11-20T01:19:12;23.50;;;12.40;;
7142;SDS011;3613;48.902;9.204;2022-11-20T01:21:51;28.67;;;11.90;;
7142;SDS011;3613;48.902;9.204;2022-11-20T01:24:19;24.83;;;11.63;;
7142;SDS011;3613;48.902;9.204;2022-11-20T01:26:46;28.20;;;12.67;;
7142;SDS011;3613;48.902;9.204;2022-11-20T01:29:14;24.53;;;12.57;;
7142;SDS011;3613;48.902;9.204;2022-11-20T01:31:42;24.90;;;12.67;;
7142;SDS011;3613;48.902;9.204;2022-11-20T01:34:09;27.07;;;12.70;;
7142;SDS011;3613;48.902;9.204;2022-11-20T01:36:37;26.47;;;13.00;;
7142;SDS011;3613;48.902;9.204;2022-11-20T01:39:04;29.07;;;14.23;;
7142;SDS011;3613;48.902;9.204;2022-11-20T01:41:33;28.23;;;14.17;;
7142;SDS011;3613;48.902;9.204;2022-11-20T01:44:18;29.53;;;12.93;;
7142;SDS011;3613;48.902;9.204;2022-11-20T01:49:20;25.87;;;14.03;;
7142;SDS011;3613;48.902;9.204;2022-11-20T01:54:24;28.83;;;13.57;;
7142;SDS011;3613;48.902;9.204;2022-11-20T01:56:55;29.27;;;13.53;;
7142;SDS011;3613;48.902;9.204;2022-11-20T01:59:24;32.50;;;15.27;;
7142;SDS011;3613;48.902;9.204;2022-11-20T02:01:52;33.53;;;15.80;;
7142;SDS011;3613;48.902;9.204;2022-11-20T02:04:18;29.70;;;16.27;;
7142;SDS011;3613;48.902;9.204;2022-11-20T02:06:48;31.80;;;14.30;;
7142;SDS011;3613;48.902;9.204;2022-11-20T02:09:21;25.17;;;12.40;;
7142;SDS011;3613;48.902;9.204;2022-11-20T02:11:46;29.07;;;13.33;;
7142;SDS011;3613;48.902;9.204;2022-11-20T02:14:15;28.80;;;13.90;;
7142;SDS011;3613;48.902;9.204;2022-11-20T02:16:46;29.37;;;15.80;;
7142;SDS011;3613;48.902;9.204;2022-11-20T02:21:54;26.57;;;13.03;;
7142;SDS011;3613;48.902;9.204;2022-11-20T02:24:26;28.47;;;14.40;;
7142;SDS011;3613;48.902;9.204;2022-11-20T02:26:56;26.00;;;13.57;;
7142;SDS011;3613;48.902;9.204;2022-11-20T02:29:37;27.20;;;14.07;;
7142;SDS011;3613;48.902;9.204;2022-11-20T02:34:52;24.20;;;11.80;;
7142;SDS011;3613;48.902;9.204;2022-11-20T02:37:18;21.63;;;11.93;;
7142;SDS011;3613;48.902;9.204;2022-11-20T02:39:45;24.83;;;11.70;;
7142;SDS011;3613;48.902;9.204;2022-11-20T02:42:15;26.83;;;13.93;;
7142;SDS011;3613;48.902;9.204;2022-11-20T02:44:40;20.53;;;11.60;;
7142;SDS011;3613;48.902;9.204;2022-11-20T02:47:06;31.27;;;18.37;;
7142;SDS011;3613;48.902;9.204;2022-11-20T02:49:34;23.50;;;10.77;;
7142;SDS011;3613;48.902;9.204;2022-11-20T02:52:03;21.50;;;12.57;;
7142;SDS011;3613;48.902;9.204;2022-11-20T02:54:31;20.70;;;11.70;;
7142;SDS011;3613;48.902;9.204;2022-11-20T02:56:56;23.07;;;12.57;;
7142;SDS011;3613;48.902;9.204;2022-11-20T02:59:22;19.27;;;11.13;;
7142;SDS011;3613;48.902;9.204;2022-11-20T03:01:47;20.17;;;12.37;;
7142;SDS011;3613;48.902;9.204;2022-11-20T03:04:15;19.10;;;11.83;;
7142;SDS011;3613;48.902;9.204;2022-11-20T03:06:41;16.47;;;10.27;;
7142;SDS011;3613;48.902;9.204;2022-11-20T03:09:09;17.50;;;9.13;;
7142;SDS011;3613;48.902;9.204;2022-11-20T03:11:35;16.30;;;8.70;;
7142;SDS011;3613;48.902;9.204;2022-11-20T03:14:04;11.43;;;7.53;;
7142;SDS011;3613;48.902;9.204;2022-11-20T03:16:30;13.03;;;8.23;;
7142;SDS011;3613;48.902;9.204;2022-11-20T03:18:56;12.80;;;8.83;;
7142;SDS011;3613;48.902;9.204;2022-11-20T03:21:24;9.47;;;7.70;;
7142;SDS011;3613;48.902;9.204;2022-11-20T03:23:50;12.43;;;8.73;;
7142;SDS011;3613;48.902;9.204;2022-11-20T03:26:19;12.00;;;7.57;;
7142;SDS011;3613;48.902;9.204;2022-11-20T03:28:47;11.20;;;8.60;;
7142;SDS011;3613;48.902;9.204;2022-11-20T03:31:14;13.93;;;8.57;;
7142;SDS011;3613;48.902;9.204;2022-11-20T03:33:41;7.73;;;6.13;;
7142;SDS011;3613;48.902;9.204;2022-11-20T03:36:08;9.10;;;6.27;;
7142;SDS011;3613;48.902;9.204;2022-11-20T03:38:36;8.87;;;5.87;;
7142;SDS011;3613;48.902;9.204;2022-11-20T03:41:09;10.90;;;5.67;;
7142;SDS011;3613;48.902;9.204;2022-11-20T03:43:36;7.27;;;5.87;;
7142;SDS011;3613;48.902;9.204;2022-11-20T03:46:08;7.87;;;5.73;;
7142;SDS011;3613;48.902;9.204;2022-11-20T03:48:33;8.13;;;5.17;;
7142;SDS011;3613;48.902;9.204;2022-11-20T03:53:35;5.83;;;5.23;;
7142;SDS011;3613;48.902;9.204;2022-11-20T03:56:03;7.33;;;5.17;;
7142;SDS011;3613;48.902;9.204;2022-11-20T03:58:32;8.03;;;4.90;;
7142;SDS011;3613;48.902;9.204;2022-11-20T04:01:04;9.03;;;5.43;;
7142;SDS011;3613;48.902;9.204;2022-11-20T04:03:43;6.77;;;4.63;;
7142;SDS011;3613;48.902;9.204;2022-11-20T04:06:10;13.73;;;8.83;;
7142;SDS011;3613;48.902;9.204;2022-11-20T04:08:36;12.40;;;8.10;;
7142;SDS011;3613;48.902;9.204;2022-11-20T04:13:41;9.40;;;6.13;;
7142;SDS011;3613;48.902;9.204;2022-11-20T04:16:10;8.83;;;5.83;;
7142;SDS011;3613;48.902;9.204;2022-11-20T04:18:36;9.37;;;7.30;;
7142;SDS011;3613;48.902;9.204;2022-11-20T04:21:02;7.03;;;5.10;;
7142;SDS011;3613;48.902;9.204;2022-11-20T04:23:30;11.10;;;5.83;;
7142;SDS011;3613;48.902;9.204;2022-11-20T04:26:06;10.50;;;6.47;;
7142;SDS011;3613;48.902;9.204;2022-11-20T04:28:33;9.07;;;5.70;;
7142;SDS011;3613;48.902;9.204;2022-11-20T04:31:07;10.60;;;7.23;;
7142;SDS011;3613;48.902;9.204;2022-11-20T04:33:35;10.33;;;6.17;;
7142;SDS011;3613;48.902;9.204;2022-11-20T04:36:04;11.67;;;6.77;;
7142;SDS011;3613;48.902;9.204;2022-11-20T04:38:35;11.73;;;7.10;;
7142;SDS011;3613;48.902;9.204;2022-11-20T04:41:02;9.20;;;5.47;;
7142;SDS011;3613;48.902;9.204;2022-11-20T04:43:32;6.17;;;4.57;;
7142;SDS011;3613;48.902;9.204;2022-11-20T04:45:58;5.47;;;4.27;;
7142;SDS011;3613;48.902;9.204;2022-11-20T04:48:25;7.17;;;4.37;;
7142;SDS011;3613;48.902;9.204;2022-11-20T04:50:54;17.27;;;9.63;;
7142;SDS011;3613;48.902;9.204;2022-11-20T04:53:20;26.20;;;13.43;;
7142;SDS011;3613;48.902;9.204;2022-11-20T04:55:48;24.07;;;13.60;;
7142;SDS011;3613;48.902;9.204;2022-11-20T04:58:14;13.50;;;8.50;;
7142;SDS011;3613;48.902;9.204;2022-11-20T05:00:40;14.07;;;8.23;;
7142;SDS011;3613;48.902;9.204;2022-11-20T05:03:08;12.67;;;7.90;;
7142;SDS011;3613;48.902;9.204;2022-11-20T05:05:34;8.37;;;6.40;;
7142;SDS011;3613;48.902;9.204;2022-11-20T05:08:02;6.77;;;4.67;;
7142;SDS011;3613;48.902;9.204;2022-11-20T05:10:28;5.97;;;4.77;;
7142;SDS011;3613;48.902;9.204;2022-11-20T05:12:58;5.17;;;4.23;;
7142;SDS011;3613;48.902;9.204;2022-11-20T05:15:26;4.40;;;4.00;;
7142;SDS011;3613;48.902;9.204;2022-11-20T05:17:54;7.00;;;4.97;;
7142;SDS011;3613;48.902;9.204;2022-11-20T05:20:20;10.70;;;7.37;;
7142;SDS011;3613;48.902;9.204;2022-11-20T05:22:47;10.80;;;7.60;;
7142;SDS011;3613;48.902;9.204;2022-11-20T05:25:13;7.57;;;4.43;;
7142;SDS011;3613;48.902;9.204;2022-11-20T05:27:38;5.83;;;4.50;;
7142;SDS011;3613;48.902;9.204;2022-11-20T05:30:07;6.23;;;4.37;;
7142;SDS011;3613;48.902;9.204;2022-11-20T05:32:33;4.70;;;3.83;;
7142;SDS011;3613;48.902;9.204;2022-11-20T05:34:59;9.40;;;6.27;;
7142;SDS011;3613;48.902;9.204;2022-11-20T05:37:24;5.40;;;4.03;;
7142;SDS011;3613;48.902;9.204;2022-11-20T05:39:52;5.27;;;4.07;;
7142;SDS011;3613;48.902;9.204;2022-11-20T05:42:20;5.67;;;4.23;;
7142;SDS011;3613;48.902;9.204;2022-11-20T05:44:58;5.30;;;4.57;;
7142;SDS011;3613;48.902;9.204;2022-11-20T05:47:28;5.37;;;3.93;;
7142;SDS011;3613;48.902;9.204;2022-11-20T05:50:00;5.10;;;4.17;;
7142;SDS011;3613;48.902;9.204;2022-11-20T05:52:31;4.97;;;4.27;;
7142;SDS011;3613;48.902;9.204;2022-11-20T05:54:57;6.27;;;4.73;;
7142;SDS011;3613;48.902;9.204;2022-11-20T05:57:22;4.57;;;3.87;;
7142;SDS011;3613;48.902;9.204;2022-11-20T05:59:48;4.87;;;4.10;;
7142;SDS011;3613;48.902;9.204;2022-11-20T06:02:13;7.43;;;4.23;;
7142;SDS011;3613;48.902;9.204;2022-11-20T06:04:41;5.90;;;4.03;;
7142;SDS011;3613;48.902;9.204;2022-11-20T06:07:07;5.30;;;3.93;;
7142;SDS011;3613;48.902;9.204;2022-11-20T06:09:33;6.77;;;4.53;;
7142;SDS011;3613;48.902;9.204;2022-11-20T06:12:01;5.90;;;4.00;;
7142;SDS011;3613;48.902;9.204;2022-11-20T06:14:26;5.43;;;4.20;;
7142;SDS011;3613;48.902;9.204;2022-11-20T06:16:52;5.90;;;4.37;;
7142;SDS011;3613;48.902;9.204;2022-11-20T06:19:17;5.17;;;3.80;;
7142;SDS011;3613;48.902;9.204;2022-11-20T06:21:47;7.83;;;3.70;;
7142;SDS011;3613;48.902;9.204;2022-11-20T06:24:13;7.97;;;3.97;;
7142;SDS011;3613;48.902;9.204;2022-11-20T06:26:44;7.23;;;3.90;;
7142;SDS011;3613;48.902;9.204;2022-11-20T06:29:12;4.00;;;3.60;;
7142;SDS011;3613;48.902;9.204;2022-11-20T06:31:38;5.87;;;3.80;;
7142;SDS011;3613;48.902;9.204;2022-11-20T06:34:04;4.60;;;3.70;;
7142;SDS011;3613;48.902;9.204;2022-11-20T06:36:31;4.93;;;3.40;;
7142;SDS011;3613;48.902;9.204;2022-11-20T06:38:57;5.27;;;3.80;;
7142;SDS011;3613;48.902;9.204;2022-11-20T06:41:22;7.33;;;3.63;;
7142;SDS011;3613;48.902;9.204;2022-11-20T06:43:48;3.97;;;3.57;;
7142;SDS011;3613;48.902;9.204;2022-11-20T06:46:14;3.80;;;3.37;;
7142;SDS011;3613;48.902;9.204;2022-11-20T06:48:44;4.50;;;3.60;;
7142;SDS011;3613;48.902;9.204;2022-11-20T06:51:11;3.77;;;3.30;;
7142;SDS011;3613;48.902;9.204;2022-11-20T06:53:37;4.23;;;3.83;;
7142;SDS011;3613;48.902;9.204;2022-11-20T06:56:03;6.37;;;3.90;;
7142;SDS011;3613;48.902;9.204;2022-11-20T06:58:30;4.87;;;3.87;;
7142;SDS011;3613;48.902;9.204;2022-11-20T07:01:00;5.50;;;4.00;;
7142;SDS011;3613;48.902;9.204;2022-11-20T07:03:28;5.20;;;3.37;;
7142;SDS011;3613;48.902;9.204;2022-11-20T07:05:56;9.57;;;5.20;;
7142;SDS011;3613;48.902;9.204;2022-11-20T07:08:24;6.80;;;4.40;;
7142;SDS011;3613;48.902;9.204;2022-11-20T07:10:50;4.83;;;4.00;;
7142;SDS011;3613;48.902;9.204;2022-11-20T07:13:16;4.10;;;3.70;;
7142;SDS011;3613;48.902;9.204;2022-11-20T07:15:44;4.17;;;2.93;;
7142;SDS011;3613;48.902;9.204;2022-11-20T07:18:10;5.60;;;4.00;;
7142;SDS011;3613;48.902;9.204;2022-11-20T07:20:36;6.27;;;4.87;;
7142;SDS011;3613;48.902;9.204;2022-11-20T07:23:01;14.63;;;8.10;;
7142;SDS011;3613;48.902;9.204;2022-11-20T07:25:27;5.80;;;4.60;;
7142;SDS011;3613;48.902;9.204;2022-11-20T07:27:58;4.73;;;3.50;;
7142;SDS011;3613;48.902;9.204;2022-11-20T07:30:25;4.57;;;3.63;;
7142;SDS011;3613;48.902;9.204;2022-11-20T07:32:52;3.87;;;3.00;;
7142;SDS011;3613;48.902;9.204;2022-11-20T07:35:22;4.83;;;2.93;;
7142;SDS011;3613;48.902;9.204;2022-11-20T07:37:48;3.90;;;2.93;;
7142;SDS011;3613;48.902;9.204;2022-11-20T07:40:15;4.73;;;3.03;;
7142;SDS011;3613;48.902;9.204;2022-11-20T07:42:53;4.07;;;3.00;;
7142;SDS011;3613;48.902;9.204;2022-11-20T07:45:20;4.23;;;3.07;;
7142;SDS011;3613;48.902;9.204;2022-11-20T07:47:48;5.93;;;3.27;;
7142;SDS011;3613;48.902;9.204;2022-11-20T07:50:14;5.00;;;3.60;;
7142;SDS011;3613;48.902;9.204;2022-11-20T07:52:40;3.03;;;2.80;;
7142;SDS011;3613;48.902;9.204;2022-11-20T07:55:06;4.67;;;3.20;;
7142;SDS011;3613;48.902;9.204;2022-11-20T07:57:32;4.33;;;3.10;;
7142;SDS011;3613;48.902;9.204;2022-11-20T08:00:01;5.07;;;3.10;;
7142;SDS011;3613;48.902;9.204;2022-11-20T08:02:28;3.03;;;2.60;;
7142;SDS011;3613;48.902;9.204;2022-11-20T08:04:54;4.50;;;2.90;;
7142;SDS011;3613;48.902;9.204;2022-11-20T08:07:19;2.80;;;2.50;;
7142;SDS011;3613;48.902;9.204;2022-11-20T08:09:45;3.47;;;2.70;;
7142;SDS011;3613;48.902;9.204;2022-11-20T08:12:17;3.87;;;2.77;;
7142;SDS011;3613;48.902;9.204;2022-11-20T08:15:03;3.07;;;2.70;;
7142;SDS011;3613;48.902;9.204;2022-11-20T08:17:32;3.33;;;2.60;;
7142;SDS011;3613;48.902;9.204;2022-11-20T08:19:59;4.93;;;2.63;;
7142;SDS011;3613;48.902;9.204;2022-11-20T08:22:28;3.10;;;2.80;;
7142;SDS011;3613;48.902;9.204;2022-11-20T08:24:54;3.10;;;2.67;;
7142;SDS011;3613;48.902;9.204;2022-11-20T08:27:19;3.73;;;2.57;;
7142;SDS011;3613;48.902;9.204;2022-11-20T08:29:47;3.60;;;2.23;;
7142;SDS011;3613;48.902;9.204;2022-11-20T08:32:13;2.90;;;2.30;;
7142;SDS011;3613;48.902;9.204;2022-11-20T08:34:38;3.20;;;2.50;;
7142;SDS011;3613;48.902;9.204;2022-11-20T08:37:04;3.50;;;2.40;;
7142;SDS011;3613;48.902;9.204;2022-11-20T08:39:29;2.93;;;2.33;;
7142;SDS011;3613;48.902;9.204;2022-11-20T08:41:55;3.87;;;2.53;;
7142;SDS011;3613;48.902;9.204;2022-11-20T08:44:23;3.20;;;2.40;;
7142;SDS011;3613;48.902;9.204;2022-11-20T08:46:49;2.30;;;2.10;;
7142;SDS011;3613;48.902;9.204;2022-11-20T08:49:14;2.33;;;1.93;;
7142;SDS011;3613;48.902;9.204;2022-11-20T08:51:40;2.53;;;2.20;;
7142;SDS011;3613;48.902;9.204;2022-11-20T08:54:06;2.00;;;1.70;;
7142;SDS011;3613;48.902;9.204;2022-11-20T08:56:35;1.60;;;1.50;;
7142;SDS011;3613;48.902;9.204;2022-11-20T08:59:01;1.90;;;1.70;;
7142;SDS011;3613;48.902;9.204;2022-11-20T09:01:27;4.80;;;1.80;;
7142;SDS011;3613;48.902;9.204;2022-11-20T09:03:56;2.77;;;1.70;;
7142;SDS011;3613;48.902;9.204;2022-11-20T09:06:22;2.93;;;1.50;;
7142;SDS011;3613;48.902;9.204;2022-11-20T09:08:51;2.27;;;1.57;;
7142;SDS011;3613;48.902;9.204;2022-11-20T09:11:17;3.23;;;1.60;;
7142;SDS011;3613;48.902;9.204;2022-11-20T09:13:43;1.50;;;1.40;;
7142;SDS011;3613;48.902;9.204;2022-11-20T09:16:10;1.47;;;1.20;;
7142;SDS011;3613;48.902;9.204;2022-11-20T09:18:36;2.70;;;1.47;;
7142;SDS011;3613;48.902;9.204;2022-11-20T09:21:03;1.60;;;1.40;;
7142;SDS011;3613;48.902;9.204;2022-11-20T09:23:31;3.90;;;1.60;;
7142;SDS011;3613;48.902;9.204;2022-11-20T09:26:03;1.63;;;1.50;;
7142;SDS011;3613;48.902;9.204;2022-11-20T09:28:32;2.20;;;1.77;;
7142;SDS011;3613;48.902;9.204;2022-11-20T09:30:58;2.00;;;1.57;;
7142;SDS011;3613;48.902;9.204;2022-11-20T09:33:26;2.10;;;1.90;;
7142;SDS011;3613;48.902;9.204;2022-11-20T09:35:54;3.03;;;2.07;;
7142;SDS011;3613;48.902;9.204;2022-11-20T09:38:19;2.20;;;1.60;;
7142;SDS011;3613;48.902;9.204;2022-11-20T09:40:46;1.50;;;1.40;;
7142;SDS011;3613;48.902;9.204;2022-11-20T09:43:49;2.00;;;1.60;;
7142;SDS011;3613;48.902;9.204;2022-11-20T09:46:44;1.80;;;1.40;;
7142;SDS011;3613;48.902;9.204;2022-11-20T09:51:53;1.40;;;1.30;;
7142;SDS011;3613;48.902;9.204;2022-11-20T09:54:39;2.07;;;1.50;;
7142;SDS011;3613;48.902;9.204;2022-11-20T09:57:13;1.53;;;1.43;;
7142;SDS011;3613;48.902;9.204;2022-11-20T09:59:46;1.33;;;1.23;;
7142;SDS011;3613;48.902;9.204;2022-11-20T10:05:06;1.70;;;1.60;;
7142;SDS011;3613;48.902;9.204;2022-11-20T10:08:01;2.23;;;1.60;;
7142;SDS011;3613;48.902;9.204;2022-11-20T10:10:36;1.77;;;1.67;;
7142;SDS011;3613;48.902;9.204;2022-11-20T10:16:17;2.23;;;2.03;;
7142;SDS011;3613;48.902;9.204;2022-11-20T10:27:44;2.10;;;1.90;;
7142;SDS011;3613;48.902;9.204;2022-11-20T10:30:37;2.63;;;2.00;;
7142;SDS011;3613;48.902;9.204;2022-11-20T10:33:16;3.07;;;2.33;;
7142;SDS011;3613;48.902;9.204;2022-11-20T10:35:52;2.63;;;2.30;;
7142;SDS011;3613;48.902;9.204;2022-11-20T10:38:33;3.53;;;2.30;;
7142;SDS011;3613;48.902;9.204;2022-11-20T10:41:19;2.27;;;2.07;;
7142;SDS011;3613;48.902;9.204;2022-11-20T10:43:51;2.33;;;2.13;;
7142;SDS011;3613;48.902;9.204;2022-11-20T10:46:24;2.57;;;1.90;;
7142;SDS011;3613;48.902;9.204;2022-11-20T10:48:57;2.57;;;1.93;;
7142;SDS011;3613;48.902;9.204;2022-11-20T10:51:35;2.80;;;1.97;;
7142;SDS011;3613;48.902;9.204;2022-11-20T10:54:12;2.63;;;1.60;;
7142;SDS011;3613;48.902;9.204;2022-11-20T10:56:55;2.57;;;2.17;;
7142;SDS011;3613;48.902;9.204;2022-11-20T10:59:31;2.43;;;1.97;;
7142;SDS011;3613;48.902;9.204;2022-11-20T11:02:17;2.40;;;1.87;;
7142;SDS011;3613;48.902;9.204;2022-11-20T11:04:52;2.77;;;2.33;;
7142;SDS011;3613;48.902;9.204;2022-11-20T11:10:24;5.00;;;3.00;;
7142;SDS011;3613;48.902;9.204;2022-11-20T11:12:53;5.47;;;3.03;;
7142;SDS011;3613;48.902;9.204;2022-11-20T11:18:10;4.27;;;3.27;;
7142;SDS011;3613;48.902;9.204;2022-11-20T11:20:36;4.90;;;3.47;;
7142;SDS011;3613;48.902;9.204;2022-11-20T11:23:02;4.03;;;3.30;;
7142;SDS011;3613;48.902;9.204;2022-11-20T11:25:30;4.83;;;4.13;;
7142;SDS011;3613;48.902;9.204;2022-11-20T11:28:02;4.47;;;3.63;;
7142;SDS011;3613;48.902;9.204;2022-11-20T11:30:45;5.23;;;3.30;;
7142;SDS011;3613;48.902;9.204;2022-11-20T11:33:46;6.57;;;3.47;;
7142;SDS011;3613;48.902;9.204;2022-11-20T11:36:16;5.50;;;3.30;;
7142;SDS011;3613;48.902;9.204;2022-11-20T11:38:48;3.23;;;2.50;;
7142;SDS011;3613;48.902;9.204;2022-11-20T11:41:23;2.20;;;2.00;;
7142;SDS011;3613;48.902;9.204;2022-11-20T11:43:56;3.77;;;2.43;;
7142;SDS011;3613;48.902;9.204;2022-11-20T11:46:48;3.13;;;2.23;;
7142;SDS011;3613;48.902;9.204;2022-11-20T11:49:18;3.67;;;2.80;;
7142;SDS011;3613;48.902;9.204;2022-11-20T11:57:10;3.10;;;2.20;;
7142;SDS011;3613;48.902;9.204;2022-11-20T12:02:29;3.20;;;2.20;;
7142;SDS011;3613;48.902;9.204;2022-11-20T12:07:42;4.50;;;2.50;;
7142;SDS011;3613;48.902;9.204;2022-11-20T12:10:23;2.50;;;1.90;;
7142;SDS011;3613;48.902;9.204;2022-11-20T12:13:15;3.27;;;2.00;;
7142;SDS011;3613;48.902;9.204;2022-11-20T12:15:59;3.20;;;2.10;;
7142;SDS011;3613;48.902;9.204;2022-11-20T12:18:31;1.90;;;1.70;;
7142;SDS011;3613;48.902;9.204;2022-11-20T12:23:42;3.43;;;1.83;;
7142;SDS011;3613;48.902;9.204;2022-11-20T12:37:07;2.77;;;1.83;;
7142;SDS011;3613;48.902;9.204;2022-11-20T12:40:02;4.37;;;1.70;;
7142;SDS011;3613;48.902;9.204;2022-11-20T12:43:28;1.50;;;1.40;;
7142;SDS011;3613;48.902;9.204;2022-11-20T13:05:05;3.70;;;1.53;;
7142;SDS011;3613;48.902;9.204;2022-11-20T13:07:36;2.43;;;1.40;;
7142;SDS011;3613;48.902;9.204;2022-11-20T13:10:05;3.70;;;1.43;;
7142;SDS011;3613;48.902;9.204;2022-11-20T13:12:47;1.33;;;1.23;;
7142;SDS011;3613;48.902;9.204;2022-11-20T13:15:28;1.53;;;1.37;;
7142;SDS011;3613;48.902;9.204;2022-11-20T13:18:03;2.13;;;1.77;;
7142;SDS011;3613;48.902;9.204;2022-11-20T13:20:33;2.43;;;1.33;;
7142;SDS011;3613;48.902;9.204;2022-11-20T13:22:59;1.97;;;1.50;;
7142;SDS011;3613;48.902;9.204;2022-11-20T13:25:28;2.73;;;1.70;;
7142;SDS011;3613;48.902;9.204;2022-11-20T13:27:55;3.43;;;1.60;;
7142;SDS011;3613;48.902;9.204;2022-11-20T13:30:23;2.23;;;1.60;;
7142;SDS011;3613;48.902;9.204;2022-11-20T13:32:56;4.50;;;1.70;;
7142;SDS011;3613;48.902;9.204;2022-11-20T13:35:42;2.70;;;1.73;;
7142;SDS011;3613;48.902;9.204;2022-11-20T13:38:19;1.73;;;1.40;;
7142;SDS011;3613;48.902;9.204;2022-11-20T13:46:00;2.83;;;1.50;;
7142;SDS011;3613;48.902;9.204;2022-11-20T13:48:34;4.73;;;2.23;;
7142;SDS011;3613;48.902;9.204;2022-11-20T14:01:52;1.67;;;1.50;;
7142;SDS011;3613;48.902;9.204;2022-11-20T14:04:23;2.70;;;1.47;;
7142;SDS011;3613;48.902;9.204;2022-11-20T14:06:56;3.00;;;1.70;;
7142;SDS011;3613;48.902;9.204;2022-11-20T14:09:26;2.60;;;1.33;;
7142;SDS011;3613;48.902;9.204;2022-11-20T14:11:59;3.27;;;1.80;;
7142;SDS011;3613;48.902;9.204;2022-11-20T14:14:28;3.20;;;1.40;;
7142;SDS011;3613;48.902;9.204;2022-11-20T14:17:05;2.80;;;1.60;;
7142;SDS011;3613;48.902;9.204;2022-11-20T14:19:41;7.80;;;1.90;;
7142;SDS011;3613;48.902;9.204;2022-11-20T14:22:18;2.53;;;1.83;;
7142;SDS011;3613;48.902;9.204;2022-11-20T14:24:46;3.63;;;1.70;;
7142;SDS011;3613;48.902;9.204;2022-11-20T14:27:32;1.60;;;1.50;;
7142;SDS011;3613;48.902;9.204;2022-11-20T14:30:02;3.63;;;1.60;;
7142;SDS011;3613;48.902;9.204;2022-11-20T14:32:29;2.23;;;1.70;;
7142;SDS011;3613;48.902;9.204;2022-11-20T14:34:56;3.50;;;1.40;;
7142;SDS011;3613;48.902;9.204;2022-11-20T14:37:28;3.90;;;1.90;;
7142;SDS011;3613;48.902;9.204;2022-11-20T14:40:04;3.50;;;2.30;;
7142;SDS011;3613;48.902;9.204;2022-11-20T14:42:51;3.50;;;1.93;;
7142;SDS011;3613;48.902;9.204;2022-11-20T14:45:20;3.27;;;2.00;;
7142;SDS011;3613;48.902;9.204;2022-11-20T14:47:49;3.43;;;1.80;;
7142;SDS011;3613;48.902;9.204;2022-11-20T14:50:23;3.13;;;2.10;;
7142;SDS011;3613;48.902;9.204;2022-11-20T14:52:57;2.73;;;1.93;;
7142;SDS011;3613;48.902;9.204;2022-11-20T14:55:25;2.80;;;2.10;;
7142;SDS011;3613;48.902;9.204;2022-11-20T14:57:56;3.73;;;2.33;;
7142;SDS011;3613;48.902;9.204;2022-11-20T15:00:23;4.93;;;2.47;;
7142;SDS011;3613;48.902;9.204;2022-11-20T15:02:50;3.73;;;2.37;;
7142;SDS011;3613;48.902;9.204;2022-11-20T15:05:18;4.03;;;2.20;;
7142;SDS011;3613;48.902;9.204;2022-11-20T15:07:46;4.20;;;2.33;;
7142;SDS011;3613;48.902;9.204;2022-11-20T15:12:50;2.63;;;2.43;;
7142;SDS011;3613;48.902;9.204;2022-11-20T15:15:30;3.27;;;1.90;;
7142;SDS011;3613;48.902;9.204;2022-11-20T15:18:09;3.20;;;2.00;;
7142;SDS011;3613;48.902;9.204;2022-11-20T15:20:42;3.67;;;2.00;;
7142;SDS011;3613;48.902;9.204;2022-11-20T15:23:10;2.30;;;1.83;;
7142;SDS011;3613;48.902;9.204;2022-11-20T15:25:37;4.43;;;2.23;;
7142;SDS011;3613;48.902;9.204;2022-11-20T15:28:40;4.27;;;2.30;;
7142;SDS011;3613;48.902;9.204;2022-11-20T15:30:59;2.67;;;2.03;;
7142;SDS011;3613;48.902;9.204;2022-11-20T15:33:27;4.97;;;2.30;;
7142;SDS011;3613;48.902;9.204;2022-11-20T15:35:52;4.17;;;2.07;;
7142;SDS011;3613;48.902;9.204;2022-11-20T15:38:18;3.30;;;2.00;;
7142;SDS011;3613;48.902;9.204;2022-11-20T15:40:44;2.87;;;1.90;;
7142;SDS011;3613;48.902;9.204;2022-11-20T15:43:09;3.63;;;1.80;;
7142;SDS011;3613;48.902;9.204;2022-11-20T15:45:41;2.63;;;1.90;;
7142;SDS011;3613;48.902;9.204;2022-11-20T15:48:24;3.23;;;2.20;;
7142;SDS011;3613;48.902;9.204;2022-11-20T15:50:54;2.83;;;2.00;;
7142;SDS011;3613;48.902;9.204;2022-11-20T15:53:27;4.37;;;3.10;;
7142;SDS011;3613;48.902;9.204;2022-11-20T15:55:52;4.20;;;2.50;;
7142;SDS011;3613;48.902;9.204;2022-11-20T15:58:18;4.37;;;2.47;;
7142;SDS011;3613;48.902;9.204;2022-11-20T16:00:50;4.17;;;2.87;;
7142;SDS011;3613;48.902;9.204;2022-11-20T16:03:18;3.17;;;2.50;;
7142;SDS011;3613;48.902;9.204;2022-11-20T16:05:47;3.93;;;2.50;;
7142;SDS011;3613;48.902;9.204;2022-11-20T16:08:15;5.27;;;3.10;;
7142;SDS011;3613;48.902;9.204;2022-11-20T16:10:43;5.50;;;3.30;;
7142;SDS011;3613;48.902;9.204;2022-11-20T16:13:11;8.43;;;4.17;;
7142;SDS011;3613;48.902;9.204;2022-11-20T16:16:01;17.57;;;8.67;;
7142;SDS011;3613;48.902;9.204;2022-11-20T16:18:34;2.40;;;2.20;;
7142;SDS011;3613;48.902;9.204;2022-11-20T16:20:59;4.40;;;2.43;;
7142;SDS011;3613;48.902;9.204;2022-11-20T16:23:25;3.57;;;2.50;;
7142;SDS011;3613;48.902;9.204;2022-11-20T16:25:51;3.60;;;2.50;;
7142;SDS011;3613;48.902;9.204;2022-11-20T16:28:19;4.00;;;2.70;;
7142;SDS011;3613;48.902;9.204;2022-11-20T16:30:47;3.13;;;2.50;;
7142;SDS011;3613;48.902;9.204;2022-11-20T16:33:16;3.93;;;2.80;;
7142;SDS011;3613;48.902;9.204;2022-11-20T16:35:42;4.63;;;3.03;;
7142;SDS011;3613;48.902;9.204;2022-11-20T16:38:08;3.57;;;2.80;;
7142;SDS011;3613;48.902;9.204;2022-11-20T16:40:36;4.63;;;2.47;;
7142;SDS011;3613;48.902;9.204;2022-11-20T16:43:10;4.37;;;2.80;;
7142;SDS011;3613;48.902;9.204;2022-11-20T16:45:42;2.83;;;2.33;;
7142;SDS011;3613;48.902;9.204;2022-11-20T16:48:12;4.57;;;3.13;;
7142;SDS011;3613;48.902;9.204;2022-11-20T16:50:49;3.83;;;2.90;;
7142;SDS011;3613;48.902;9.204;2022-11-20T16:53:17;3.60;;;2.47;;
7142;SDS011;3613;48.902;9.204;2022-11-20T16:55:44;3.00;;;2.60;;
7142;SDS011;3613;48.902;9.204;2022-11-20T16:58:10;4.10;;;2.70;;
7142;SDS011;3613;48.902;9.204;2022-11-20T17:00:37;4.87;;;3.10;;
7142;SDS011;3613;48.902;9.204;2022-11-20T17:03:04;5.23;;;3.90;;
7142;SDS011;3613;48.902;9.204;2022-11-20T17:05:34;4.47;;;3.30;;